sensor_id;sensor_type;location;lat;lon;timestamp;P1;durP1;ratioP1;P2;durP2;ratioP2
20531;SDS011;10424;52.102;8.084;2023-03-14T00:00:58;8.18;;;2.25;;
20531;SDS011;10424;52.102;8.084;2023-03-14T00:03:27;6.47;;;2.35;;
20531;SDS011;10424;52.102;8.084;2023-03-14T00:05:56;1.75;;;1.13;;
20531;SDS011;10424;52.102;8.084;2023-03-14T00:08:23;3.85;;;1.42;;
20531;SDS011;10424;52.102;8.084;2023-03-14T00:10:50;5.50;;;2.08;;
20531;SDS011;10424;52.102;8.084;2023-03-14T00:13:18;7.95;;;1.90;;
20531;SDS011;10424;52.102;8.084;2023-03-14T00:15:45;5.60;;;1.92;;
20531;SDS011;10424;52.102;8.084;2023-03-14T00:18:12;8.35;;;2.60;;
20531;SDS011;10424;52.102;8.084;2023-03-14T00:20:39;7.13;;;2.28;;
20531;SDS011;10424;52.102;8.084;2023-03-14T00:23:08;5.88;;;1.77;;
20531;SDS011;10424;52.102;8.084;2023-03-14T00:25:35;5.78;;;1.48;;
20531;SDS011;10424;52.102;8.084;2023-03-14T00:28:03;9.80;;;2.40;;
20531;SDS011;10424;52.102;8.084;2023-03-14T00:30:30;4.32;;;2.15;;
20531;SDS011;10424;52.102;8.084;2023-03-14T00:32:57;5.63;;;1.92;;
20531;SDS011;10424;52.102;8.084;2023-03-14T00:35:24;7.85;;;2.20;;
20531;SDS011;10424;52.102;8.084;2023-03-14T00:37:52;7.97;;;1.90;;
20531;SDS011;10424;52.102;8.084;2023-03-14T00:40:20;5.57;;;1.73;;
20531;SDS011;10424;52.102;8.084;2023-03-14T00:42:48;3.13;;;1.42;;
20531;SDS011;10424;52.102;8.084;2023-03-14T00:45:15;4.15;;;1.63;;
20531;SDS011;10424;52.102;8.084;2023-03-14T00:47:42;4.68;;;2.10;;
20531;SDS011;10424;52.102;8.084;2023-03-14T00:50:10;4.97;;;2.10;;
20531;SDS011;10424;52.102;8.084;2023-03-14T00:52:38;5.10;;;2.20;;
20531;SDS011;10424;52.102;8.084;2023-03-14T00:55:05;6.15;;;1.90;;
20531;SDS011;10424;52.102;8.084;2023-03-14T00:57:34;6.82;;;2.50;;
20531;SDS011;10424;52.102;8.084;2023-03-14T01:00:01;8.05;;;2.30;;
20531;SDS011;10424;52.102;8.084;2023-03-14T01:02:31;5.32;;;2.13;;
20531;SDS011;10424;52.102;8.084;2023-03-14T01:04:58;5.85;;;2.00;;
20531;SDS011;10424;52.102;8.084;2023-03-14T01:07:25;6.18;;;2.42;;
20531;SDS011;10424;52.102;8.084;2023-03-14T01:09:53;4.38;;;2.13;;
20531;SDS011;10424;52.102;8.084;2023-03-14T01:12:20;4.65;;;1.95;;
20531;SDS011;10424;52.102;8.084;2023-03-14T01:14:49;7.05;;;2.15;;
20531;SDS011;10424;52.102;8.084;2023-03-14T01:17:16;6.13;;;2.03;;
20531;SDS011;10424;52.102;8.084;2023-03-14T01:19:43;5.22;;;1.95;;
20531;SDS011;10424;52.102;8.084;2023-03-14T01:22:10;4.53;;;2.10;;
20531;SDS011;10424;52.102;8.084;2023-03-14T01:24:38;6.30;;;2.00;;
20531;SDS011;10424;52.102;8.084;2023-03-14T01:27:05;9.23;;;2.25;;
20531;SDS011;10424;52.102;8.084;2023-03-14T01:29:32;7.63;;;2.10;;
20531;SDS011;10424;52.102;8.084;2023-03-14T01:32:01;4.90;;;1.80;;
20531;SDS011;10424;52.102;8.084;2023-03-14T01:34:28;8.07;;;2.00;;
20531;SDS011;10424;52.102;8.084;2023-03-14T01:36:55;5.20;;;2.00;;
20531;SDS011;10424;52.102;8.084;2023-03-14T01:39:22;4.00;;;1.45;;
20531;SDS011;10424;52.102;8.084;2023-03-14T01:41:50;5.30;;;1.17;;
20531;SDS011;10424;52.102;8.084;2023-03-14T01:44:17;5.82;;;2.08;;
20531;SDS011;10424;52.102;8.084;2023-03-14T01:46:44;4.18;;;1.40;;
20531;SDS011;10424;52.102;8.084;2023-03-14T01:49:24;10.27;;;1.88;;
20531;SDS011;10424;52.102;8.084;2023-03-14T01:51:54;5.05;;;1.48;;
20531;SDS011;10424;52.102;8.084;2023-03-14T01:54:23;6.03;;;1.58;;
20531;SDS011;10424;52.102;8.084;2023-03-14T01:56:53;5.07;;;1.35;;
20531;SDS011;10424;52.102;8.084;2023-03-14T01:59:22;7.85;;;1.85;;
20531;SDS011;10424;52.102;8.084;2023-03-14T02:01:50;5.57;;;1.65;;
20531;SDS011;10424;52.102;8.084;2023-03-14T02:04:18;7.40;;;1.63;;
20531;SDS011;10424;52.102;8.084;2023-03-14T02:06:50;4.35;;;1.40;;
20531;SDS011;10424;52.102;8.084;2023-03-14T02:09:18;4.18;;;1.38;;
20531;SDS011;10424;52.102;8.084;2023-03-14T02:11:45;3.58;;;1.48;;
20531;SDS011;10424;52.102;8.084;2023-03-14T02:14:15;4.32;;;1.58;;
20531;SDS011;10424;52.102;8.084;2023-03-14T02:16:44;3.75;;;1.40;;
20531;SDS011;10424;52.102;8.084;2023-03-14T02:19:12;1.85;;;1.17;;
20531;SDS011;10424;52.102;8.084;2023-03-14T02:21:43;7.55;;;1.20;;
20531;SDS011;10424;52.102;8.084;2023-03-14T02:24:15;4.20;;;1.20;;
20531;SDS011;10424;52.102;8.084;2023-03-14T02:29:39;2.83;;;0.80;;
20531;SDS011;10424;52.102;8.084;2023-03-14T02:32:07;1.33;;;0.70;;
20531;SDS011;10424;52.102;8.084;2023-03-14T02:34:35;1.27;;;0.77;;
20531;SDS011;10424;52.102;8.084;2023-03-14T02:37:03;3.70;;;1.10;;
20531;SDS011;10424;52.102;8.084;2023-03-14T02:39:33;4.50;;;1.15;;
20531;SDS011;10424;52.102;8.084;2023-03-14T02:42:02;3.88;;;1.05;;
20531;SDS011;10424;52.102;8.084;2023-03-14T02:44:29;2.47;;;0.88;;
20531;SDS011;10424;52.102;8.084;2023-03-14T02:46:58;4.70;;;1.45;;
20531;SDS011;10424;52.102;8.084;2023-03-14T02:49:25;3.17;;;0.80;;
20531;SDS011;10424;52.102;8.084;2023-03-14T02:51:55;3.97;;;1.10;;
20531;SDS011;10424;52.102;8.084;2023-03-14T02:54:22;2.75;;;0.90;;
20531;SDS011;10424;52.102;8.084;2023-03-14T02:56:49;3.33;;;0.82;;
20531;SDS011;10424;52.102;8.084;2023-03-14T02:59:16;4.72;;;1.08;;
20531;SDS011;10424;52.102;8.084;2023-03-14T03:01:44;2.88;;;1.00;;
20531;SDS011;10424;52.102;8.084;2023-03-14T03:04:12;3.90;;;1.02;;
20531;SDS011;10424;52.102;8.084;2023-03-14T03:06:40;3.53;;;0.80;;
20531;SDS011;10424;52.102;8.084;2023-03-14T03:09:07;2.65;;;1.05;;
20531;SDS011;10424;52.102;8.084;2023-03-14T03:11:34;2.80;;;0.90;;
20531;SDS011;10424;52.102;8.084;2023-03-14T03:14:02;2.97;;;1.02;;
20531;SDS011;10424;52.102;8.084;2023-03-14T03:16:29;5.85;;;1.10;;
20531;SDS011;10424;52.102;8.084;2023-03-14T03:18:56;3.88;;;1.45;;
20531;SDS011;10424;52.102;8.084;2023-03-14T03:21:25;3.63;;;0.90;;
20531;SDS011;10424;52.102;8.084;2023-03-14T03:23:52;1.33;;;0.90;;
20531;SDS011;10424;52.102;8.084;2023-03-14T03:26:19;2.67;;;0.82;;
20531;SDS011;10424;52.102;8.084;2023-03-14T03:28:47;2.58;;;1.15;;
20531;SDS011;10424;52.102;8.084;2023-03-14T03:31:14;4.70;;;1.25;;
20531;SDS011;10424;52.102;8.084;2023-03-14T03:33:41;3.78;;;1.02;;
20531;SDS011;10424;52.102;8.084;2023-03-14T03:36:09;2.20;;;0.80;;
20531;SDS011;10424;52.102;8.084;2023-03-14T03:38:37;4.38;;;1.25;;
20531;SDS011;10424;52.102;8.084;2023-03-14T03:41:05;4.78;;;1.30;;
20531;SDS011;10424;52.102;8.084;2023-03-14T03:43:33;2.97;;;1.25;;
20531;SDS011;10424;52.102;8.084;2023-03-14T03:46:02;5.55;;;1.20;;
20531;SDS011;10424;52.102;8.084;2023-03-14T03:48:30;2.42;;;0.90;;
20531;SDS011;10424;52.102;8.084;2023-03-14T03:50:57;3.17;;;1.13;;
20531;SDS011;10424;52.102;8.084;2023-03-14T03:53:24;2.63;;;1.00;;
20531;SDS011;10424;52.102;8.084;2023-03-14T03:55:53;5.03;;;1.27;;
20531;SDS011;10424;52.102;8.084;2023-03-14T03:58:20;4.53;;;0.90;;
20531;SDS011;10424;52.102;8.084;2023-03-14T04:00:47;5.38;;;1.30;;
20531;SDS011;10424;52.102;8.084;2023-03-14T04:03:15;3.10;;;1.05;;
20531;SDS011;10424;52.102;8.084;2023-03-14T04:05:42;7.15;;;1.48;;
20531;SDS011;10424;52.102;8.084;2023-03-14T04:08:09;5.72;;;1.15;;
20531;SDS011;10424;52.102;8.084;2023-03-14T04:10:37;4.90;;;1.58;;
20531;SDS011;10424;52.102;8.084;2023-03-14T04:13:05;6.10;;;1.75;;
20531;SDS011;10424;52.102;8.084;2023-03-14T04:15:33;2.78;;;1.23;;
20531;SDS011;10424;52.102;8.084;2023-03-14T04:18:00;2.25;;;0.95;;
20531;SDS011;10424;52.102;8.084;2023-03-14T04:20:27;5.28;;;1.80;;
20531;SDS011;10424;52.102;8.084;2023-03-14T04:22:55;4.68;;;1.90;;
20531;SDS011;10424;52.102;8.084;2023-03-14T04:25:22;6.05;;;1.88;;
20531;SDS011;10424;52.102;8.084;2023-03-14T04:27:49;2.22;;;1.05;;
20531;SDS011;10424;52.102;8.084;2023-03-14T04:30:18;3.88;;;1.35;;
20531;SDS011;10424;52.102;8.084;2023-03-14T04:32:45;4.70;;;1.88;;
20531;SDS011;10424;52.102;8.084;2023-03-14T04:35:13;8.73;;;2.33;;
20531;SDS011;10424;52.102;8.084;2023-03-14T04:37:40;9.98;;;2.20;;
20531;SDS011;10424;52.102;8.084;2023-03-14T04:40:08;4.40;;;1.70;;
20531;SDS011;10424;52.102;8.084;2023-03-14T04:42:36;7.55;;;1.60;;
20531;SDS011;10424;52.102;8.084;2023-03-14T04:45:04;5.38;;;1.90;;
20531;SDS011;10424;52.102;8.084;2023-03-14T04:47:33;6.38;;;1.85;;
20531;SDS011;10424;52.102;8.084;2023-03-14T04:50:00;5.45;;;1.70;;
20531;SDS011;10424;52.102;8.084;2023-03-14T04:52:27;4.75;;;1.67;;
20531;SDS011;10424;52.102;8.084;2023-03-14T04:54:55;4.85;;;2.33;;
20531;SDS011;10424;52.102;8.084;2023-03-14T04:57:22;5.93;;;1.40;;
20531;SDS011;10424;52.102;8.084;2023-03-14T04:59:49;6.35;;;1.80;;
20531;SDS011;10424;52.102;8.084;2023-03-14T05:02:17;7.35;;;1.88;;
20531;SDS011;10424;52.102;8.084;2023-03-14T05:04:45;4.35;;;1.60;;
20531;SDS011;10424;52.102;8.084;2023-03-14T05:07:13;4.40;;;1.58;;
20531;SDS011;10424;52.102;8.084;2023-03-14T05:09:40;4.25;;;1.42;;
20531;SDS011;10424;52.102;8.084;2023-03-14T05:12:07;4.32;;;1.38;;
20531;SDS011;10424;52.102;8.084;2023-03-14T05:14:35;3.08;;;1.30;;
20531;SDS011;10424;52.102;8.084;2023-03-14T05:17:02;5.03;;;1.30;;
20531;SDS011;10424;52.102;8.084;2023-03-14T05:19:29;5.22;;;1.38;;
20531;SDS011;10424;52.102;8.084;2023-03-14T05:21:58;4.00;;;1.40;;
20531;SDS011;10424;52.102;8.084;2023-03-14T05:24:25;5.32;;;1.67;;
20531;SDS011;10424;52.102;8.084;2023-03-14T05:26:53;6.45;;;1.70;;
20531;SDS011;10424;52.102;8.084;2023-03-14T05:29:20;4.30;;;1.73;;
20531;SDS011;10424;52.102;8.084;2023-03-14T05:31:47;4.07;;;1.35;;
20531;SDS011;10424;52.102;8.084;2023-03-14T05:34:15;5.05;;;1.70;;
20531;SDS011;10424;52.102;8.084;2023-03-14T05:36:42;5.65;;;1.40;;
20531;SDS011;10424;52.102;8.084;2023-03-14T05:39:11;6.80;;;1.67;;
20531;SDS011;10424;52.102;8.084;2023-03-14T05:41:38;5.72;;;1.70;;
20531;SDS011;10424;52.102;8.084;2023-03-14T05:44:06;4.25;;;1.58;;
20531;SDS011;10424;52.102;8.084;2023-03-14T05:46:33;1.73;;;1.15;;
20531;SDS011;10424;52.102;8.084;2023-03-14T05:49:00;3.95;;;1.42;;
20531;SDS011;10424;52.102;8.084;2023-03-14T05:51:27;5.30;;;1.75;;
20531;SDS011;10424;52.102;8.084;2023-03-14T05:53:55;6.78;;;1.90;;
20531;SDS011;10424;52.102;8.084;2023-03-14T05:56:23;4.43;;;1.20;;
20531;SDS011;10424;52.102;8.084;2023-03-14T05:58:51;7.43;;;1.40;;
20531;SDS011;10424;52.102;8.084;2023-03-14T06:01:18;5.60;;;1.48;;
20531;SDS011;10424;52.102;8.084;2023-03-14T06:03:45;5.97;;;1.40;;
20531;SDS011;10424;52.102;8.084;2023-03-14T06:06:12;4.07;;;1.23;;
20531;SDS011;10424;52.102;8.084;2023-03-14T06:08:41;4.90;;;1.27;;
20531;SDS011;10424;52.102;8.084;2023-03-14T06:11:09;2.25;;;1.00;;
20531;SDS011;10424;52.102;8.084;2023-03-14T06:13:37;4.15;;;1.10;;
20531;SDS011;10424;52.102;8.084;2023-03-14T06:16:05;3.10;;;1.00;;
20531;SDS011;10424;52.102;8.084;2023-03-14T06:18:32;2.17;;;1.13;;
20531;SDS011;10424;52.102;8.084;2023-03-14T06:21:00;3.75;;;0.90;;
20531;SDS011;10424;52.102;8.084;2023-03-14T06:23:27;1.48;;;0.80;;
20531;SDS011;10424;52.102;8.084;2023-03-14T06:25:55;2.13;;;0.98;;
20531;SDS011;10424;52.102;8.084;2023-03-14T06:28:23;2.30;;;0.90;;
20531;SDS011;10424;52.102;8.084;2023-03-14T06:30:52;2.53;;;0.85;;
20531;SDS011;10424;52.102;8.084;2023-03-14T06:33:19;2.30;;;0.80;;
20531;SDS011;10424;52.102;8.084;2023-03-14T06:35:46;1.77;;;0.70;;
20531;SDS011;10424;52.102;8.084;2023-03-14T06:38:14;2.70;;;0.90;;
20531;SDS011;10424;52.102;8.084;2023-03-14T06:40:41;2.88;;;0.80;;
20531;SDS011;10424;52.102;8.084;2023-03-14T06:43:08;1.00;;;0.68;;
20531;SDS011;10424;52.102;8.084;2023-03-14T06:45:36;3.42;;;0.80;;
20531;SDS011;10424;52.102;8.084;2023-03-14T06:48:04;2.58;;;0.88;;
20531;SDS011;10424;52.102;8.084;2023-03-14T06:50:32;2.47;;;0.80;;
20531;SDS011;10424;52.102;8.084;2023-03-14T06:52:59;1.33;;;0.60;;
20531;SDS011;10424;52.102;8.084;2023-03-14T06:55:26;2.22;;;0.57;;
20531;SDS011;10424;52.102;8.084;2023-03-14T06:57:54;1.63;;;0.50;;
20531;SDS011;10424;52.102;8.084;2023-03-14T07:00:21;1.33;;;0.77;;
20531;SDS011;10424;52.102;8.084;2023-03-14T07:02:50;1.70;;;0.70;;
20531;SDS011;10424;52.102;8.084;2023-03-14T07:05:18;3.70;;;0.90;;
20531;SDS011;10424;52.102;8.084;2023-03-14T07:07:46;4.53;;;1.02;;
20531;SDS011;10424;52.102;8.084;2023-03-14T07:10:13;1.45;;;1.00;;
20531;SDS011;10424;52.102;8.084;2023-03-14T07:12:40;0.68;;;0.68;;
20531;SDS011;10424;52.102;8.084;2023-03-14T07:15:08;1.80;;;1.08;;
20531;SDS011;10424;52.102;8.084;2023-03-14T07:17:35;2.67;;;1.00;;
20531;SDS011;10424;52.102;8.084;2023-03-14T07:20:03;2.92;;;0.93;;
20531;SDS011;10424;52.102;8.084;2023-03-14T07:22:32;2.28;;;1.30;;
20531;SDS011;10424;52.102;8.084;2023-03-14T07:24:59;3.42;;;1.42;;
20531;SDS011;10424;52.102;8.084;2023-03-14T07:27:26;4.18;;;1.60;;
20531;SDS011;10424;52.102;8.084;2023-03-14T07:29:54;2.25;;;1.20;;
20531;SDS011;10424;52.102;8.084;2023-03-14T07:32:22;5.75;;;1.60;;
20531;SDS011;10424;52.102;8.084;2023-03-14T07:34:49;2.17;;;1.33;;
20531;SDS011;10424;52.102;8.084;2023-03-14T07:37:16;2.47;;;1.88;;
20531;SDS011;10424;52.102;8.084;2023-03-14T07:39:45;3.53;;;1.60;;
20531;SDS011;10424;52.102;8.084;2023-03-14T07:42:12;2.05;;;1.25;;
20531;SDS011;10424;52.102;8.084;2023-03-14T07:44:40;2.00;;;1.60;;
20531;SDS011;10424;52.102;8.084;2023-03-14T07:47:07;2.15;;;1.80;;
20531;SDS011;10424;52.102;8.084;2023-03-14T07:49:34;3.10;;;2.20;;
20531;SDS011;10424;52.102;8.084;2023-03-14T07:52:02;3.03;;;2.30;;
20531;SDS011;10424;52.102;8.084;2023-03-14T07:54:29;4.95;;;2.47;;
20531;SDS011;10424;52.102;8.084;2023-03-14T07:56:58;3.13;;;2.28;;
20531;SDS011;10424;52.102;8.084;2023-03-14T07:59:25;3.47;;;2.70;;
20531;SDS011;10424;52.102;8.084;2023-03-14T08:01:53;4.78;;;3.33;;
20531;SDS011;10424;52.102;8.084;2023-03-14T08:04:20;5.75;;;4.10;;
20531;SDS011;10424;52.102;8.084;2023-03-14T08:06:48;5.03;;;3.42;;
20531;SDS011;10424;52.102;8.084;2023-03-14T08:09:16;6.25;;;4.35;;
20531;SDS011;10424;52.102;8.084;2023-03-14T08:11:43;6.32;;;3.70;;
20531;SDS011;10424;52.102;8.084;2023-03-14T08:14:12;10.25;;;4.22;;
20531;SDS011;10424;52.102;8.084;2023-03-14T08:16:39;8.38;;;6.20;;
20531;SDS011;10424;52.102;8.084;2023-03-14T08:19:07;9.40;;;6.22;;
20531;SDS011;10424;52.102;8.084;2023-03-14T08:21:34;7.97;;;4.50;;
20531;SDS011;10424;52.102;8.084;2023-03-14T08:24:02;9.60;;;5.10;;
20531;SDS011;10424;52.102;8.084;2023-03-14T08:26:29;9.00;;;6.03;;
20531;SDS011;10424;52.102;8.084;2023-03-14T08:28:57;8.27;;;5.72;;
20531;SDS011;10424;52.102;8.084;2023-03-14T08:31:25;8.55;;;5.45;;
20531;SDS011;10424;52.102;8.084;2023-03-14T08:33:53;7.68;;;4.78;;
20531;SDS011;10424;52.102;8.084;2023-03-14T08:36:20;8.20;;;5.53;;
20531;SDS011;10424;52.102;8.084;2023-03-14T08:38:47;10.93;;;6.40;;
20531;SDS011;10424;52.102;8.084;2023-03-14T08:41:15;5.28;;;3.58;;
20531;SDS011;10424;52.102;8.084;2023-03-14T08:43:42;7.97;;;5.82;;
20531;SDS011;10424;52.102;8.084;2023-03-14T08:46:10;7.93;;;5.32;;
20531;SDS011;10424;52.102;8.084;2023-03-14T08:48:38;8.68;;;4.75;;
20531;SDS011;10424;52.102;8.084;2023-03-14T08:51:06;7.88;;;5.93;;
20531;SDS011;10424;52.102;8.084;2023-03-14T08:53:34;5.30;;;3.72;;
20531;SDS011;10424;52.102;8.084;2023-03-14T08:56:01;8.55;;;5.97;;
20531;SDS011;10424;52.102;8.084;2023-03-14T08:58:28;8.93;;;5.28;;
20531;SDS011;10424;52.102;8.084;2023-03-14T09:00:56;7.43;;;5.38;;
20531;SDS011;10424;52.102;8.084;2023-03-14T09:03:23;10.32;;;6.55;;
20531;SDS011;10424;52.102;8.084;2023-03-14T09:05:52;7.25;;;5.25;;
20531;SDS011;10424;52.102;8.084;2023-03-14T09:08:19;6.55;;;4.35;;
20531;SDS011;10424;52.102;8.084;2023-03-14T09:10:47;7.30;;;4.97;;
20531;SDS011;10424;52.102;8.084;2023-03-14T09:13:14;6.90;;;4.97;;
20531;SDS011;10424;52.102;8.084;2023-03-14T09:15:42;7.20;;;4.65;;
20531;SDS011;10424;52.102;8.084;2023-03-14T09:18:09;6.82;;;4.10;;
20531;SDS011;10424;52.102;8.084;2023-03-14T09:20:36;5.10;;;3.53;;
20531;SDS011;10424;52.102;8.084;2023-03-14T09:23:05;6.32;;;4.40;;
20531;SDS011;10424;52.102;8.084;2023-03-14T09:25:32;5.53;;;4.28;;
20531;SDS011;10424;52.102;8.084;2023-03-14T09:27:59;3.90;;;3.05;;
20531;SDS011;10424;52.102;8.084;2023-03-14T09:30:27;6.07;;;4.75;;
20531;SDS011;10424;52.102;8.084;2023-03-14T09:32:54;5.72;;;4.43;;
20531;SDS011;10424;52.102;8.084;2023-03-14T09:35:22;8.07;;;5.65;;
20531;SDS011;10424;52.102;8.084;2023-03-14T09:37:49;7.40;;;5.60;;
20531;SDS011;10424;52.102;8.084;2023-03-14T09:40:19;6.38;;;4.72;;
20531;SDS011;10424;52.102;8.084;2023-03-14T09:42:48;8.38;;;6.70;;
20531;SDS011;10424;52.102;8.084;2023-03-14T09:45:18;7.57;;;4.88;;
20531;SDS011;10424;52.102;8.084;2023-03-14T09:47:49;7.75;;;5.38;;
20531;SDS011;10424;52.102;8.084;2023-03-14T09:50:17;8.30;;;5.07;;
20531;SDS011;10424;52.102;8.084;2023-03-14T09:52:45;6.13;;;4.65;;
20531;SDS011;10424;52.102;8.084;2023-03-14T09:55:14;6.65;;;5.47;;
20531;SDS011;10424;52.102;8.084;2023-03-14T09:57:43;7.40;;;6.00;;
20531;SDS011;10424;52.102;8.084;2023-03-14T10:00:14;8.27;;;6.07;;
20531;SDS011;10424;52.102;8.084;2023-03-14T10:02:45;1.95;;;1.45;;
20531;SDS011;10424;52.102;8.084;2023-03-14T10:05:14;1.30;;;1.17;;
20531;SDS011;10424;52.102;8.084;2023-03-14T10:07:42;1.20;;;1.10;;
20531;SDS011;10424;52.102;8.084;2023-03-14T10:10:10;1.13;;;0.95;;
20531;SDS011;10424;52.102;8.084;2023-03-14T10:12:38;2.70;;;0.80;;
20531;SDS011;10424;52.102;8.084;2023-03-14T10:15:09;1.00;;;0.80;;
20531;SDS011;10424;52.102;8.084;2023-03-14T10:17:40;1.73;;;0.80;;
20531;SDS011;10424;52.102;8.084;2023-03-14T10:20:26;0.90;;;0.70;;
20531;SDS011;10424;52.102;8.084;2023-03-14T10:22:57;1.15;;;0.82;;
20531;SDS011;10424;52.102;8.084;2023-03-14T10:25:25;1.23;;;0.95;;
20531;SDS011;10424;52.102;8.084;2023-03-14T10:27:53;1.73;;;1.20;;
20531;SDS011;10424;52.102;8.084;2023-03-14T10:30:29;1.45;;;1.02;;
20531;SDS011;10424;52.102;8.084;2023-03-14T10:32:57;1.45;;;1.02;;
20531;SDS011;10424;52.102;8.084;2023-03-14T10:35:25;0.80;;;0.80;;
20531;SDS011;10424;52.102;8.084;2023-03-14T10:37:53;1.17;;;1.00;;
20531;SDS011;10424;52.102;8.084;2023-03-14T10:40:22;2.80;;;0.80;;
20531;SDS011;10424;52.102;8.084;2023-03-14T10:42:51;1.35;;;0.80;;
20531;SDS011;10424;52.102;8.084;2023-03-14T10:45:32;1.15;;;0.80;;
20531;SDS011;10424;52.102;8.084;2023-03-14T10:48:05;0.45;;;0.32;;
20531;SDS011;10424;52.102;8.084;2023-03-14T10:50:33;0.57;;;0.50;;
20531;SDS011;10424;52.102;8.084;2023-03-14T10:53:01;0.50;;;0.50;;
20531;SDS011;10424;52.102;8.084;2023-03-14T10:55:39;0.80;;;0.55;;
20531;SDS011;10424;52.102;8.084;2023-03-14T10:58:16;1.95;;;0.50;;
20531;SDS011;10424;52.102;8.084;2023-03-14T11:00:45;3.15;;;0.60;;
20531;SDS011;10424;52.102;8.084;2023-03-14T11:03:16;2.25;;;0.57;;
20531;SDS011;10424;52.102;8.084;2023-03-14T11:05:46;1.13;;;0.77;;
20531;SDS011;10424;52.102;8.084;2023-03-14T11:08:19;3.97;;;0.90;;
20531;SDS011;10424;52.102;8.084;2023-03-14T11:10:48;1.17;;;0.60;;
20531;SDS011;10424;52.102;8.084;2023-03-14T11:13:17;0.95;;;0.70;;
20531;SDS011;10424;52.102;8.084;2023-03-14T11:15:53;1.35;;;0.70;;
20531;SDS011;10424;52.102;8.084;2023-03-14T11:18:29;1.17;;;0.60;;
20531;SDS011;10424;52.102;8.084;2023-03-14T11:21:02;1.63;;;0.70;;
20531;SDS011;10424;52.102;8.084;2023-03-14T11:23:38;0.93;;;0.60;;
20531;SDS011;10424;52.102;8.084;2023-03-14T11:26:09;1.48;;;0.90;;
20531;SDS011;10424;52.102;8.084;2023-03-14T11:28:40;2.50;;;0.60;;
20531;SDS011;10424;52.102;8.084;2023-03-14T11:31:12;2.65;;;0.77;;
20531;SDS011;10424;52.102;8.084;2023-03-14T11:33:44;1.88;;;0.70;;
20531;SDS011;10424;52.102;8.084;2023-03-14T11:36:14;3.60;;;0.80;;
20531;SDS011;10424;52.102;8.084;2023-03-14T11:38:46;2.55;;;0.88;;
20531;SDS011;10424;52.102;8.084;2023-03-14T11:41:15;2.10;;;0.80;;
20531;SDS011;10424;52.102;8.084;2023-03-14T11:43:45;2.15;;;0.82;;
20531;SDS011;10424;52.102;8.084;2023-03-14T11:46:16;2.10;;;0.93;;
20531;SDS011;10424;52.102;8.084;2023-03-14T11:48:45;3.50;;;0.90;;
20531;SDS011;10424;52.102;8.084;2023-03-14T11:51:19;4.55;;;0.93;;
20531;SDS011;10424;52.102;8.084;2023-03-14T11:53:50;4.18;;;1.15;;
20531;SDS011;10424;52.102;8.084;2023-03-14T11:56:19;2.92;;;1.10;;
20531;SDS011;10424;52.102;8.084;2023-03-14T11:58:51;3.58;;;1.25;;
20531;SDS011;10424;52.102;8.084;2023-03-14T12:01:22;3.72;;;0.95;;
20531;SDS011;10424;52.102;8.084;2023-03-14T12:03:54;3.17;;;1.15;;
20531;SDS011;10424;52.102;8.084;2023-03-14T12:06:25;7.88;;;1.30;;
20531;SDS011;10424;52.102;8.084;2023-03-14T12:08:56;4.10;;;0.90;;
20531;SDS011;10424;52.102;8.084;2023-03-14T12:11:31;5.32;;;1.00;;
20531;SDS011;10424;52.102;8.084;2023-03-14T12:13:59;3.00;;;0.93;;
20531;SDS011;10424;52.102;8.084;2023-03-14T12:16:35;5.15;;;1.50;;
20531;SDS011;10424;52.102;8.084;2023-03-14T12:22:01;5.95;;;1.45;;
20531;SDS011;10424;52.102;8.084;2023-03-14T12:24:33;6.38;;;1.90;;
20531;SDS011;10424;52.102;8.084;2023-03-14T12:27:02;6.47;;;1.30;;
20531;SDS011;10424;52.102;8.084;2023-03-14T12:29:29;4.00;;;1.20;;
20531;SDS011;10424;52.102;8.084;2023-03-14T12:32:09;7.20;;;1.23;;
20531;SDS011;10424;52.102;8.084;2023-03-14T12:34:38;7.88;;;1.23;;
20531;SDS011;10424;52.102;8.084;2023-03-14T12:37:21;4.90;;;1.30;;
20531;SDS011;10424;52.102;8.084;2023-03-14T12:39:56;8.18;;;1.42;;
20531;SDS011;10424;52.102;8.084;2023-03-14T12:42:36;8.25;;;1.52;;
20531;SDS011;10424;52.102;8.084;2023-03-14T12:45:14;7.82;;;1.60;;
20531;SDS011;10424;52.102;8.084;2023-03-14T12:50:34;6.95;;;1.30;;
20531;SDS011;10424;52.102;8.084;2023-03-14T12:55:44;10.52;;;1.48;;
20531;SDS011;10424;52.102;8.084;2023-03-14T12:58:14;11.38;;;2.00;;
20531;SDS011;10424;52.102;8.084;2023-03-14T13:00:51;11.40;;;1.77;;
20531;SDS011;10424;52.102;8.084;2023-03-14T13:03:19;13.57;;;2.45;;
20531;SDS011;10424;52.102;8.084;2023-03-14T13:05:55;16.83;;;2.45;;
20531;SDS011;10424;52.102;8.084;2023-03-14T13:08:34;13.57;;;2.03;;
20531;SDS011;10424;52.102;8.084;2023-03-14T13:11:01;10.15;;;1.90;;
20531;SDS011;10424;52.102;8.084;2023-03-14T13:13:29;14.82;;;2.33;;
20531;SDS011;10424;52.102;8.084;2023-03-14T13:15:57;16.77;;;2.10;;
20531;SDS011;10424;52.102;8.084;2023-03-14T13:18:29;12.05;;;2.03;;
20531;SDS011;10424;52.102;8.084;2023-03-14T13:21:02;10.48;;;1.70;;
20531;SDS011;10424;52.102;8.084;2023-03-14T13:23:31;10.00;;;2.20;;
20531;SDS011;10424;52.102;8.084;2023-03-14T13:25:59;14.52;;;2.00;;
20531;SDS011;10424;52.102;8.084;2023-03-14T13:28:26;12.88;;;2.10;;
20531;SDS011;10424;52.102;8.084;2023-03-14T13:30:55;12.82;;;1.70;;
20531;SDS011;10424;52.102;8.084;2023-03-14T13:33:23;12.35;;;2.17;;
20531;SDS011;10424;52.102;8.084;2023-03-14T13:35:54;15.23;;;2.58;;
20531;SDS011;10424;52.102;8.084;2023-03-14T13:38:24;14.65;;;3.55;;
20531;SDS011;10424;52.102;8.084;2023-03-14T13:40:53;14.43;;;2.35;;
20531;SDS011;10424;52.102;8.084;2023-03-14T13:43:25;19.63;;;4.05;;
20531;SDS011;10424;52.102;8.084;2023-03-14T13:45:56;16.52;;;3.63;;
20531;SDS011;10424;52.102;8.084;2023-03-14T13:48:28;19.02;;;3.03;;
20531;SDS011;10424;52.102;8.084;2023-03-14T13:50:58;17.63;;;4.22;;
20531;SDS011;10424;52.102;8.084;2023-03-14T13:53:27;13.77;;;3.30;;
20531;SDS011;10424;52.102;8.084;2023-03-14T13:55:55;11.95;;;2.85;;
20531;SDS011;10424;52.102;8.084;2023-03-14T13:58:23;11.30;;;2.95;;
20531;SDS011;10424;52.102;8.084;2023-03-14T14:00:55;16.15;;;3.28;;
20531;SDS011;10424;52.102;8.084;2023-03-14T14:03:23;9.77;;;2.08;;
20531;SDS011;10424;52.102;8.084;2023-03-14T14:05:50;20.17;;;7.68;;
20531;SDS011;10424;52.102;8.084;2023-03-14T14:08:18;10.27;;;3.20;;
20531;SDS011;10424;52.102;8.084;2023-03-14T14:10:47;8.50;;;1.88;;
20531;SDS011;10424;52.102;8.084;2023-03-14T14:13:15;10.80;;;5.65;;
20531;SDS011;10424;52.102;8.084;2023-03-14T14:15:45;6.30;;;2.00;;
20531;SDS011;10424;52.102;8.084;2023-03-14T14:18:14;11.27;;;2.80;;
20531;SDS011;10424;52.102;8.084;2023-03-14T14:20:44;6.72;;;2.15;;
20531;SDS011;10424;52.102;8.084;2023-03-14T14:23:12;7.85;;;1.77;;
20531;SDS011;10424;52.102;8.084;2023-03-14T14:25:42;19.42;;;7.85;;
20531;SDS011;10424;52.102;8.084;2023-03-14T14:28:17;6.28;;;1.95;;
20531;SDS011;10424;52.102;8.084;2023-03-14T14:30:53;12.05;;;2.35;;
20531;SDS011;10424;52.102;8.084;2023-03-14T14:33:26;13.63;;;2.88;;
20531;SDS011;10424;52.102;8.084;2023-03-14T14:35:54;7.43;;;2.28;;
20531;SDS011;10424;52.102;8.084;2023-03-14T14:38:22;6.93;;;1.52;;
20531;SDS011;10424;52.102;8.084;2023-03-14T14:40:50;7.15;;;2.28;;
20531;SDS011;10424;52.102;8.084;2023-03-14T14:43:21;4.90;;;1.52;;
20531;SDS011;10424;52.102;8.084;2023-03-14T14:45:49;5.10;;;1.52;;
20531;SDS011;10424;52.102;8.084;2023-03-14T14:48:18;8.27;;;2.40;;
20531;SDS011;10424;52.102;8.084;2023-03-14T14:50:50;8.48;;;2.40;;
20531;SDS011;10424;52.102;8.084;2023-03-14T14:53:21;4.78;;;1.75;;
20531;SDS011;10424;52.102;8.084;2023-03-14T14:55:50;6.30;;;2.60;;
20531;SDS011;10424;52.102;8.084;2023-03-14T14:58:18;6.75;;;1.98;;
20531;SDS011;10424;52.102;8.084;2023-03-14T15:00:51;5.72;;;1.88;;
20531;SDS011;10424;52.102;8.084;2023-03-14T15:03:20;9.60;;;3.00;;
20531;SDS011;10424;52.102;8.084;2023-03-14T15:05:47;9.35;;;3.20;;